Terminal Aerodrome Forecast
Issued by NWS Jacksonville, FL

Home | Current Version | Previous Version | Text Only | Print | Product List | Glossary On
Versions: 1 2 3 4 5 6 7 8 9 10 11 12 13 14 15 16 17
000
FTUS42 KJAX 292323
TAFGNV
TAF
KGNV 292323Z 3000/3024 07007KT P6SM SCT050
     FM301000 00000KT 4SM BR SCT020 SCT100
     FM301230 07004KT P6SM SCT025
     FM301600 08007KT P6SM VCSH BKN040
     FM301900 09009KT P6SM VCTS BKN050CB BKN250=

USA.gov is the U.S. government's official web portal to all federal, state and local government web resources and services.